Time;durP1;ratioP1;P1;durP2;ratioP2;P2;SDS_P1;SDS_P2;PMS_P1;PMS_P2;Temp;Humidity;BMP_temperature;BMP_pressure;BME280_temperature;BME280_humidity;BME280_pressure;Samples;Min_cycle;Max_cycle;Signal;HPM_P1;HPM_P2
2023/09/30 00:00:11;;;;;;;1.02;0.93;;;;;;;16.92;100.00;99431.50;4185268;28;20215;-47
2023/09/30 00:02:13;;;;;;;0.47;0.40;;;;;;;16.83;100.00;99437.78;4193423;28;20211;-49
2023/09/30 00:04:15;;;;;;;0.90;0.50;;;;;;;16.64;100.00;99442.09;4186611;28;20211;-48
2023/09/30 00:06:17;;;;;;;1.27;0.55;;;;;;;16.52;100.00;99435.97;4184100;28;20227;-50
2023/09/30 00:08:19;;;;;;;1.02;0.60;;;;;;;16.55;100.00;99426.31;4189769;28;20282;-51
2023/09/30 00:10:21;;;;;;;1.80;0.60;;;;;;;16.63;100.00;99437.66;4196665;28;20210;-47
2023/09/30 00:12:22;;;;;;;0.73;0.50;;;;;;;16.62;100.00;99440.72;4180279;28;20210;-47
2023/09/30 00:14:24;;;;;;;0.55;0.50;;;;;;;16.76;100.00;99447.44;4181247;28;20200;-47
2023/09/30 00:16:26;;;;;;;0.57;0.57;;;;;;;16.75;100.00;99449.38;4182322;28;20228;-49
2023/09/30 00:18:28;;;;;;;0.82;0.60;;;;;;;16.78;100.00;99446.09;4190290;28;20330;-48
2023/09/30 00:20:30;;;;;;;0.57;0.57;;;;;;;16.81;100.00;99444.69;4188138;28;20675;-51
2023/09/30 00:22:32;;;;;;;0.90;0.70;;;;;;;16.84;100.00;99446.94;4185090;28;20204;-48
2023/09/30 00:24:34;;;;;;;0.68;0.50;;;;;;;16.86;100.00;99455.78;4180484;28;20228;-50
2023/09/30 00:26:38;;;;;;;0.57;0.57;;;;;;;16.92;100.00;99445.31;4185113;28;20233;-47
2023/09/30 00:28:40;;;;;;;0.88;0.88;;;;;;;16.92;100.00;99442.56;4183049;28;20247;-49
2023/09/30 00:30:45;;;;;;;0.75;0.75;;;;;;;16.99;100.00;99447.84;4184550;28;20204;-49
2023/09/30 00:32:47;;;;;;;0.60;0.60;;;;;;;16.99;100.00;99447.84;4183898;28;20253;-50
2023/09/30 00:34:49;;;;;;;1.60;1.00;;;;;;;16.98;100.00;99446.19;4182267;28;20678;-48
2023/09/30 00:36:51;;;;;;;0.50;0.50;;;;;;;16.97;100.00;99438.97;4180339;28;20701;-48
2023/09/30 00:38:52;;;;;;;0.60;0.60;;;;;;;16.93;100.00;99446.97;4182527;28;20213;-52
2023/09/30 00:40:54;;;;;;;1.10;0.70;;;;;;;16.98;100.00;99454.50;4189272;28;20203;-47
2023/09/30 00:42:56;;;;;;;1.63;0.63;;;;;;;16.95;100.00;99446.72;4183135;28;20211;-47
2023/09/30 00:44:58;;;;;;;0.55;0.55;;;;;;;16.90;100.00;99449.44;4185258;28;20220;-49
2023/09/30 00:46:59;;;;;;;0.60;0.60;;;;;;;16.90;100.00;99454.97;4189558;28;20619;-48
2023/09/30 00:49:02;;;;;;;2.45;0.80;;;;;;;16.90;100.00;99457.75;4189064;28;20203;-50
2023/09/30 00:51:05;;;;;;;0.55;0.55;;;;;;;16.87;100.00;99461.06;4188628;28;20199;-53
2023/09/30 00:53:07;;;;;;;0.63;0.57;;;;;;;16.85;100.00;99457.75;4182023;28;20204;-47
2023/09/30 00:55:10;;;;;;;2.03;0.90;;;;;;;16.71;100.00;99462.06;4184792;28;20617;-51
2023/09/30 00:57:13;;;;;;;0.70;0.70;;;;;;;16.79;100.00;99455.19;4186966;28;20211;-49
2023/09/30 00:59:15;;;;;;;1.17;0.60;;;;;;;16.72;100.00;99458.22;4168166;28;20207;-52
2023/09/30 01:01:17;;;;;;;0.95;0.70;;;;;;;16.71;100.00;99451.03;4180529;28;20611;-51
2023/09/30 01:03:19;;;;;;;0.50;0.50;;;;;;;16.66;100.00;99453.75;4180453;28;20222;-52
2023/09/30 01:05:21;;;;;;;1.05;0.73;;;;;;;16.65;100.00;99452.09;4186337;28;20678;-47
2023/09/30 01:07:22;;;;;;;1.73;0.95;;;;;;;16.67;100.00;99444.34;4184991;28;20207;-50
2023/09/30 01:09:25;;;;;;;0.90;0.60;;;;;;;16.65;100.00;99446.56;4198132;28;20207;-49
2023/09/30 01:11:27;;;;;;;2.45;0.70;;;;;;;16.65;100.00;99446.56;4186333;28;20227;-48
2023/09/30 01:13:37;;;;;;;0.70;0.70;;;;;;;16.65;100.00;99452.09;4182304;28;20203;-48
2023/09/30 01:15:39;;;;;;;0.73;0.73;;;;;;;16.70;100.00;99460.38;4188536;28;20226;-51
2023/09/30 01:17:41;;;;;;;2.28;0.60;;;;;;;16.69;100.00;99460.69;4187756;28;20238;-48
2023/09/30 01:19:43;;;;;;;0.40;0.40;;;;;;;16.68;100.00;99456.25;4183063;28;20269;-48
2023/09/30 01:21:48;;;;;;;0.75;0.75;;;;;;;16.73;100.00;99459.88;4189035;28;20592;-51
2023/09/30 01:23:50;;;;;;;0.77;0.70;;;;;;;16.64;100.00;99455.09;4181661;28;20203;-48
2023/09/30 01:25:51;;;;;;;0.60;0.60;;;;;;;16.63;100.00;99453.44;4182856;28;20227;-50
2023/09/30 01:27:54;;;;;;;1.33;0.90;;;;;;;16.63;100.00;99458.97;4185644;28;20212;-49
2023/09/30 01:29:57;;;;;;;1.30;0.77;;;;;;;16.64;100.00;99461.44;4188300;28;20215;-49
2023/09/30 01:32:00;;;;;;;1.13;0.75;;;;;;;16.64;100.00;99466.97;4188933;28;20811;-52
2023/09/30 01:34:02;;;;;;;1.55;0.75;;;;;;;16.69;100.00;99469.78;4188407;28;20203;-48
2023/09/30 01:36:04;;;;;;;0.60;0.55;;;;;;;16.69;100.00;99464.25;4185433;28;20280;-48
2023/09/30 01:38:06;;;;;;;2.80;0.70;;;;;;;16.70;100.00;99471.44;4188914;28;20257;-49
2023/09/30 01:40:11;;;;;;;0.70;0.63;;;;;;;16.74;100.00;99471.75;4185135;28;20204;-51
2023/09/30 01:42:13;;;;;;;1.08;0.60;;;;;;;16.73;100.00;99459.88;4182470;28;20253;-48
2023/09/30 01:44:14;;;;;;;0.60;0.45;;;;;;;16.69;100.00;99453.19;4184569;28;20687;-48
2023/09/30 01:46:16;;;;;;;1.77;0.80;;;;;;;16.63;100.00;99459.78;4187806;28;20242;-49
2023/09/30 01:48:18;;;;;;;0.70;0.70;;;;;;;16.65;100.00;99454.84;4187875;28;20635;-48
2023/09/30 01:50:20;;;;;;;1.10;0.63;;;;;;;16.60;100.00;99452.03;4196738;28;20203;-50
2023/09/30 01:52:22;;;;;;;1.27;0.80;;;;;;;16.65;100.00;99457.63;4183123;28;20572;-50
2023/09/30 01:54:23;;;;;;;1.13;1.13;;;;;;;16.56;100.00;99461.13;4182894;28;20264;-47
2023/09/30 01:56:25;;;;;;;1.20;0.70;;;;;;;16.53;100.00;99456.97;4187265;28;20320;-47
2023/09/30 01:58:30;;;;;;;1.05;0.80;;;;;;;16.54;100.00;99455.03;4189354;28;20207;-48
2023/09/30 02:00:32;;;;;;;0.68;0.60;;;;;;;16.58;100.00;99453.41;4190443;28;20207;-47
2023/09/30 02:02:34;;;;;;;0.65;0.40;;;;;;;16.56;100.00;99453.66;4168409;28;20285;-47
2023/09/30 02:04:36;;;;;;;0.50;0.50;;;;;;;16.51;100.00;99453.66;4187241;28;20204;-50
2023/09/30 02:06:38;;;;;;;0.88;0.85;;;;;;;16.48;100.00;99451.41;4187347;28;20234;-48
2023/09/30 02:08:40;;;;;;;1.20;0.57;;;;;;;16.51;100.00;99450.88;4187427;28;20212;-47
2023/09/30 02:10:41;;;;;;;0.65;0.57;;;;;;;16.50;100.00;99451.94;4181842;28;20204;-50
2023/09/30 02:12:43;;;;;;;1.85;0.50;;;;;;;16.46;100.00;99453.59;4188991;28;20294;-49
2023/09/30 02:14:46;;;;;;;0.63;0.60;;;;;;;16.41;100.00;99461.84;4189300;28;20237;-50
2023/09/30 02:16:47;;;;;;;1.92;0.82;;;;;;;16.39;100.00;99469.56;4184834;28;20293;-48
2023/09/30 02:18:50;;;;;;;1.30;1.15;;;;;;;16.35;100.00;99473.91;4186696;28;20266;-49
2023/09/30 02:20:53;;;;;;;1.40;1.30;;;;;;;16.36;100.00;99478.34;4187435;28;20250;-47
2023/09/30 02:22:55;;;;;;;0.80;0.80;;;;;;;16.35;100.00;99479.44;4188200;28;20211;-48
2023/09/30 02:24:56;;;;;;;1.15;0.63;;;;;;;16.31;100.00;99478.31;4187458;28;20215;-48
2023/09/30 02:26:58;;;;;;;0.50;0.50;;;;;;;16.34;100.00;99482.47;4182092;28;20208;-48
2023/09/30 02:29:00;;;;;;;0.82;0.75;;;;;;;16.34;100.00;99477.78;4184449;28;20209;-51
2023/09/30 02:31:02;;;;;;;1.02;1.02;;;;;;;16.33;100.00;99476.13;4192191;28;20209;-48
2023/09/30 02:33:04;;;;;;;1.63;0.93;;;;;;;16.32;100.00;99474.47;4185496;28;20651;-48
2023/09/30 02:35:13;;;;;;;1.30;0.70;;;;;;;16.34;100.00;99474.16;4187045;28;20660;-49
2023/09/30 02:37:15;;;;;;;0.88;0.75;;;;;;;16.28;100.00;99476.06;4183689;28;21032;-47
2023/09/30 02:39:17;;;;;;;0.93;0.68;;;;;;;16.25;100.00;99479.38;4182022;28;20290;-49
2023/09/30 02:41:19;;;;;;;1.00;0.55;;;;;;;16.28;100.00;99492.63;4185886;28;20281;-51
2023/09/30 02:43:21;;;;;;;2.38;1.48;;;;;;;16.24;100.00;99485.97;4184002;28;20211;-48
2023/09/30 02:45:23;;;;;;;1.25;0.80;;;;;;;16.28;100.00;99495.41;4186068;28;20227;-50
2023/09/30 02:47:24;;;;;;;1.05;0.93;;;;;;;16.31;100.00;99500.41;4185957;28;20874;-48
2023/09/30 02:49:32;;;;;;;0.77;0.60;;;;;;;16.21;100.00;99500.31;4185483;28;20274;-47
2023/09/30 02:51:34;;;;;;;0.50;0.50;;;;;;;16.18;100.00;99495.34;4185813;28;20257;-51
2023/09/30 02:53:36;;;;;;;0.98;0.98;;;;;;;16.11;100.00;99488.34;4186732;28;20290;-47
2023/09/30 02:55:38;;;;;;;0.60;0.60;;;;;;;15.86;100.00;99486.16;4203823;28;20745;-47
2023/09/30 02:57:39;;;;;;;0.77;0.77;;;;;;;15.85;100.00;99483.66;4185467;28;20260;-49
2023/09/30 02:59:42;;;;;;;0.75;0.57;;;;;;;15.85;100.00;99469.84;4181834;28;20261;-48
2023/09/30 03:01:43;;;;;;;0.95;0.88;;;;;;;15.95;100.00;99475.50;4183346;28;20203;-49
2023/09/30 03:03:45;;;;;;;0.73;0.73;;;;;;;15.97;100.00;99463.06;4189987;28;20207;-50
2023/09/30 03:05:49;;;;;;;0.95;0.90;;;;;;;15.82;100.00;99460.16;4184996;28;20371;-47
2023/09/30 03:07:51;;;;;;;0.85;0.55;;;;;;;15.85;100.00;99462.44;4191008;28;20211;-47
2023/09/30 03:09:54;;;;;;;1.15;1.05;;;;;;;15.71;100.00;99452.88;4184229;28;20203;-50
2023/09/30 03:11:56;;;;;;;1.13;1.10;;;;;;;15.73;100.00;99470.03;4189156;28;20237;-47
2023/09/30 03:13:58;;;;;;;0.77;0.63;;;;;;;15.68;100.00;99471.88;4199805;28;20965;-47
2023/09/30 03:16:01;;;;;;;2.83;0.75;;;;;;;15.65;100.00;99467.72;4184619;28;20744;-50
2023/09/30 03:18:03;;;;;;;1.50;0.80;;;;;;;15.65;100.00;99481.53;4201564;28;20720;-47
2023/09/30 03:20:09;;;;;;;0.77;0.77;;;;;;;15.67;100.00;99482.09;4168760;28;20299;-48
2023/09/30 03:22:11;;;;;;;0.70;0.70;;;;;;;15.69;100.00;99490.13;4190632;28;20566;-48
2023/09/30 03:24:13;;;;;;;0.82;0.70;;;;;;;15.78;100.00;99492.16;4201278;28;20211;-47
2023/09/30 03:26:15;;;;;;;0.70;0.70;;;;;;;15.77;100.00;99487.72;4186008;28;20240;-48
2023/09/30 03:28:17;;;;;;;1.15;0.70;;;;;;;15.72;100.00;99484.91;4188424;28;20203;-48
2023/09/30 03:30:20;;;;;;;0.77;0.68;;;;;;;15.70;100.00;99489.84;4189996;28;20206;-49
2023/09/30 03:32:22;;;;;;;2.58;1.10;;;;;;;15.67;100.00;99493.13;4198622;28;20591;-47
2023/09/30 03:34:24;;;;;;;0.57;0.45;;;;;;;15.65;100.00;99488.97;4187231;28;20203;-47
2023/09/30 03:36:25;;;;;;;0.80;0.57;;;;;;;15.62;100.00;99490.31;4181721;28;20232;-48
2023/09/30 03:38:27;;;;;;;0.93;0.60;;;;;;;15.62;100.00;99490.31;4201900;28;20222;-50
2023/09/30 03:40:33;;;;;;;0.73;0.65;;;;;;;15.58;100.00;99489.19;4189444;28;20297;-53
2023/09/30 03:42:35;;;;;;;0.63;0.63;;;;;;;15.58;100.00;99483.66;4190000;28;20287;-51
2023/09/30 03:44:38;;;;;;;0.63;0.63;;;;;;;15.49;100.00;99496.22;4189440;28;20207;-49
2023/09/30 03:46:40;;;;;;;0.88;0.82;;;;;;;15.48;100.00;99497.31;4183102;28;20227;-50
2023/09/30 03:48:44;;;;;;;0.90;0.82;;;;;;;15.53;100.00;99502.91;4187560;28;20668;-48
2023/09/30 03:50:46;;;;;;;0.70;0.70;;;;;;;15.49;100.00;99495.41;4184497;28;20272;-47
2023/09/30 03:52:49;;;;;;;1.00;0.90;;;;;;;15.41;100.00;99496.69;4184182;28;20214;-49
2023/09/30 03:54:51;;;;;;;1.35;0.80;;;;;;;15.39;100.00;99495.28;4184068;28;20208;-47
2023/09/30 03:56:53;;;;;;;0.93;0.93;;;;;;;15.35;100.00;99505.97;4183042;28;20266;-47
2023/09/30 03:58:54;;;;;;;4.90;0.73;;;;;;;15.34;100.00;99498.81;4189029;28;20211;-48
2023/09/30 04:00:56;;;;;;;1.00;0.85;;;;;;;15.34;100.00;99498.81;4174038;28;20210;-48
2023/09/30 04:02:58;;;;;;;0.77;0.70;;;;;;;15.29;100.00;99490.44;4185319;28;20249;-49
2023/09/30 04:05:04;;;;;;;1.55;0.80;;;;;;;15.35;100.00;99494.13;4186993;28;20302;-51
2023/09/30 04:07:10;;;;;;;1.13;0.75;;;;;;;15.27;100.00;99498.13;4188396;28;20214;-50
2023/09/30 04:09:11;;;;;;;2.20;0.90;;;;;;;15.26;100.00;99482.69;4189911;28;20212;-47
2023/09/30 04:11:17;;;;;;;0.88;0.82;;;;;;;15.23;100.00;99480.41;4182063;28;20214;-47
2023/09/30 04:13:21;;;;;;;1.83;0.88;;;;;;;15.09;100.00;99484.66;4185381;28;20240;-48
2023/09/30 04:15:22;;;;;;;0.68;0.60;;;;;;;15.01;100.00;99482.34;4202862;28;20238;-48
2023/09/30 04:17:26;;;;;;;0.75;0.75;;;;;;;14.97;100.00;99485.88;4183089;28;20207;-49
2023/09/30 04:19:30;;;;;;;0.60;0.60;;;;;;;14.95;100.00;99491.63;4188230;28;20747;-49
2023/09/30 04:21:34;;;;;;;0.93;0.70;;;;;;;14.94;100.00;99498.22;4199386;28;20206;-49
2023/09/30 04:23:36;;;;;;;0.60;0.60;;;;;;;14.90;100.00;99499.81;4182767;28;20273;-47
2023/09/30 04:25:38;;;;;;;2.03;1.00;;;;;;;14.85;100.00;99510.78;4182070;28;20695;-48
2023/09/30 04:27:40;;;;;;;1.30;0.80;;;;;;;14.85;100.00;99515.44;4182908;28;20215;-50
2023/09/30 04:29:42;;;;;;;1.13;0.47;;;;;;;14.84;100.00;99517.34;4185298;28;20239;-49
2023/09/30 04:31:44;;;;;;;0.70;0.70;;;;;;;14.87;100.00;99519.63;4189144;28;20203;-48
2023/09/30 04:33:47;;;;;;;0.60;0.50;;;;;;;14.90;100.00;99516.34;4185696;28;20207;-51
2023/09/30 04:35:48;;;;;;;1.95;1.02;;;;;;;14.94;100.00;99514.75;4185138;28;20223;-49
2023/09/30 04:37:51;;;;;;;0.50;0.50;;;;;;;15.08;100.00;99516.06;4185102;28;20211;-48
2023/09/30 04:39:53;;;;;;;0.60;0.60;;;;;;;15.07;100.00;99514.41;4186086;28;20562;-47
2023/09/30 04:41:55;;;;;;;0.80;0.80;;;;;;;15.08;100.00;99510.56;4185480;28;20660;-48
2023/09/30 04:43:57;;;;;;;0.95;0.85;;;;;;;15.03;100.00;99496.69;4192966;28;20212;-48
2023/09/30 04:45:59;;;;;;;1.00;0.90;;;;;;;15.04;100.00;99503.88;4197380;28;20274;-48
2023/09/30 04:48:04;;;;;;;0.90;0.73;;;;;;;15.05;100.00;99511.06;4181260;28;20207;-48
2023/09/30 04:50:07;;;;;;;0.60;0.60;;;;;;;15.05;100.00;99502.81;4189618;28;20265;-51
2023/09/30 04:52:09;;;;;;;0.63;0.63;;;;;;;15.05;100.00;99511.06;4183344;28;20208;-50
2023/09/30 04:54:11;;;;;;;0.93;0.88;;;;;;;15.12;100.00;99516.38;4183803;28;20208;-52
2023/09/30 04:56:13;;;;;;;0.75;0.75;;;;;;;15.14;100.00;99520.56;4182113;28;20303;-50
2023/09/30 04:58:16;;;;;;;1.00;1.00;;;;;;;15.11;100.00;99515.53;4187729;28;20722;-48
2023/09/30 05:00:21;;;;;;;1.00;0.88;;;;;;;15.08;100.00;99521.59;4184492;28;20245;-48
2023/09/30 05:02:24;;;;;;;0.55;0.55;;;;;;;15.11;100.00;99515.53;4187752;28;20229;-48
2023/09/30 05:04:26;;;;;;;0.95;0.95;;;;;;;15.02;100.00;99519.84;4181356;28;20651;-47
2023/09/30 05:06:28;;;;;;;1.63;0.90;;;;;;;14.91;100.00;99515.25;4184260;28;20239;-47
2023/09/30 05:08:30;;;;;;;0.82;0.82;;;;;;;15.02;100.00;99511.56;4182961;28;20216;-49
2023/09/30 05:10:33;;;;;;;1.08;0.90;;;;;;;14.88;100.00;99514.94;4195907;28;20650;-48
2023/09/30 05:12:35;;;;;;;1.02;0.93;;;;;;;14.95;100.00;99505.41;4181327;28;20566;-50
2023/09/30 05:14:38;;;;;;;1.25;0.82;;;;;;;14.94;100.00;99502.91;4184331;28;20219;-48
2023/09/30 05:16:40;;;;;;;0.70;0.70;;;;;;;14.89;100.00;99502.84;4191314;28;20589;-49
2023/09/30 05:18:42;;;;;;;0.77;0.77;;;;;;;14.87;100.00;99503.09;4182016;28;20215;-48
2023/09/30 05:20:45;;;;;;;0.57;0.57;;;;;;;14.94;100.00;99512.00;4182893;28;20211;-49
2023/09/30 05:22:46;;;;;;;0.73;0.70;;;;;;;14.89;100.00;99528.47;4188076;28;20237;-48
2023/09/30 05:24:48;;;;;;;1.38;1.25;;;;;;;14.91;100.00;99542.00;4188863;28;20207;-50
2023/09/30 05:26:50;;;;;;;0.77;0.70;;;;;;;14.92;100.00;99544.50;4185119;28;20227;-52
2023/09/30 05:28:52;;;;;;;0.70;0.68;;;;;;;14.96;100.00;99526.38;4184452;28;20216;-49
2023/09/30 05:30:54;;;;;;;1.00;0.70;;;;;;;14.97;100.00;99530.78;4186744;28;20227;-48
2023/09/30 05:32:58;;;;;;;0.98;0.90;;;;;;;14.99;100.00;99541.56;4180143;28;20658;-48
2023/09/30 05:35:03;;;;;;;0.70;0.70;;;;;;;14.99;100.00;99553.44;4169425;28;20208;-51
2023/09/30 05:37:05;;;;;;;0.77;0.73;;;;;;;15.02;100.00;99557.63;4188307;28;20204;-50
2023/09/30 05:39:10;;;;;;;1.17;0.80;;;;;;;15.04;100.00;99553.50;4187666;28;20215;-48
2023/09/30 05:41:13;;;;;;;1.77;1.17;;;;;;;15.03;100.00;99553.75;4179164;28;20641;-48
2023/09/30 05:43:14;;;;;;;0.88;0.88;;;;;;;15.10;100.00;99551.66;4186279;28;20218;-49
2023/09/30 05:45:19;;;;;;;0.80;0.80;;;;;;;15.09;100.00;99550.00;4185157;28;20227;-48
2023/09/30 05:47:21;;;;;;;0.80;0.80;;;;;;;15.03;100.00;99553.75;4180234;28;20260;-48
2023/09/30 05:49:23;;;;;;;1.27;0.90;;;;;;;15.02;100.00;99560.38;4187687;28;20207;-50
2023/09/30 05:51:26;;;;;;;0.85;0.82;;;;;;;15.01;100.00;99562.28;4185968;28;20761;-48
2023/09/30 05:53:28;;;;;;;1.33;1.00;;;;;;;15.01;100.00;99570.56;4186465;28;20230;-50
2023/09/30 05:55:30;;;;;;;2.08;1.27;;;;;;;15.05;100.00;99581.91;4187903;28;20591;-50
2023/09/30 05:57:32;;;;;;;1.10;0.95;;;;;;;15.10;100.00;99574.53;4183627;28;20204;-48
2023/09/30 05:59:34;;;;;;;1.58;1.48;;;;;;;15.12;100.00;99572.38;4181174;28;20246;-48
2023/09/30 06:01:35;;;;;;;0.95;0.90;;;;;;;15.03;100.00;99578.59;4182404;28;20216;-48
2023/09/30 06:03:39;;;;;;;1.20;1.08;;;;;;;15.08;100.00;99575.88;4189253;28;20363;-46
2023/09/30 06:05:41;;;;;;;0.75;0.75;;;;;;;15.10;100.00;99573.72;4182333;28;20231;-50
2023/09/30 06:07:45;;;;;;;0.70;0.70;;;;;;;15.11;100.00;99576.19;4200667;28;20226;-50
2023/09/30 06:09:49;;;;;;;1.65;1.20;;;;;;;15.15;100.00;99582.91;4184107;28;20245;-48
2023/09/30 06:11:51;;;;;;;1.35;1.15;;;;;;;15.27;100.00;99574.50;4185512;28;20739;-46
2023/09/30 06:13:54;;;;;;;1.30;1.20;;;;;;;15.23;100.00;99571.41;4192537;28;20242;-48
2023/09/30 06:15:56;;;;;;;2.63;1.63;;;;;;;15.23;100.00;99570.59;4187192;28;20238;-47
2023/09/30 06:17:59;;;;;;;2.05;1.92;;;;;;;15.19;100.00;99561.16;4170683;28;20208;-52
2023/09/30 06:20:08;;;;;;;2.15;1.75;;;;;;;15.31;100.00;99554.44;4187834;28;20330;-49
2023/09/30 06:22:10;;;;;;;2.95;2.50;;;;;;;15.32;100.00;99556.16;4191453;28;20206;-52
2023/09/30 06:24:11;;;;;;;4.82;3.28;;;;;;;15.36;100.00;99562.81;4192018;28;20266;-51
2023/09/30 06:26:13;;;;;;;5.03;2.97;;;;;;;15.40;100.00;99563.97;4188309;28;20268;-48
2023/09/30 06:28:15;;;;;;;1.20;1.10;;;;;;;15.34;100.00;99567.75;4188153;28;20203;-48
2023/09/30 06:30:18;;;;;;;1.63;1.50;;;;;;;15.28;100.00;99577.00;4186607;28;20200;-48
2023/09/30 06:32:20;;;;;;;1.27;1.17;;;;;;;15.30;100.00;99580.34;4193798;28;20290;-49
2023/09/30 06:34:21;;;;;;;1.40;1.30;;;;;;;15.20;100.00;99585.72;4193583;28;20230;-50
2023/09/30 06:36:23;;;;;;;1.58;1.48;;;;;;;15.33;100.00;99577.13;4188028;28;20225;-52
2023/09/30 06:38:26;;;;;;;1.83;1.48;;;;;;;15.35;100.00;99583.22;4186212;28;20204;-48
2023/09/30 06:40:28;;;;;;;2.35;1.70;;;;;;;15.39;100.00;99578.88;4186574;28;20728;-50
2023/09/30 06:42:29;;;;;;;3.33;1.67;;;;;;;15.42;100.00;99578.34;4191090;28;20211;-50
2023/09/30 06:44:31;;;;;;;4.57;1.15;;;;;;;15.42;100.00;99586.63;4190598;28;20207;-47
2023/09/30 06:46:34;;;;;;;2.08;1.30;;;;;;;15.61;100.00;99587.13;4187142;28;20701;-50
2023/09/30 06:48:37;;;;;;;3.10;2.40;;;;;;;15.80;100.00;99589.34;4190558;28;20246;-50
2023/09/30 06:50:49;;;;;;;1.13;1.02;;;;;;;15.89;100.00;99585.03;4190619;28;20769;-50
2023/09/30 06:52:50;;;;;;;1.65;1.48;;;;;;;15.99;100.00;99593.44;4188071;28;20211;-47
2023/09/30 06:54:52;;;;;;;1.60;1.50;;;;;;;15.95;100.00;99597.78;4185684;28;20230;-49
2023/09/30 06:56:54;;;;;;;1.38;1.27;;;;;;;16.12;100.00;99597.72;4188414;28;20199;-48
2023/09/30 06:58:56;;;;;;;1.00;0.90;;;;;;;16.23;100.00;99602.25;4189178;28;20207;-47
2023/09/30 07:00:58;;;;;;;1.13;1.02;;;;;;;16.19;100.00;99599.19;4192993;28;20643;-49
2023/09/30 07:03:01;;;;;;;2.45;1.08;;;;;;;16.30;100.00;99612.00;4183978;28;20213;-48
2023/09/30 07:05:13;;;;;;;2.50;1.90;;;;;;;16.61;100.00;99622.31;4185162;28;20252;-50
2023/09/30 07:07:15;;;;;;;1.83;1.10;;;;;;;16.70;100.00;99623.47;4187218;28;20229;-49
2023/09/30 07:09:18;;;;;;;4.57;1.17;;;;;;;16.87;100.00;99615.91;4200846;28;20211;-50
2023/09/30 07:11:32;;;;;;;1.05;0.82;;;;;;;17.15;100.00;99613.66;4185950;28;20286;-48
2023/09/30 07:13:34;;;;;;;2.05;1.25;;;;;;;17.48;100.00;99609.75;4182980;28;20219;-48
2023/09/30 07:15:36;;;;;;;2.33;1.75;;;;;;;17.76;100.00;99603.78;4186420;28;20305;-50
2023/09/30 07:17:38;;;;;;;1.42;1.30;;;;;;;17.91;100.00;99601.94;4187996;28;20203;-49
2023/09/30 07:19:43;;;;;;;1.85;1.27;;;;;;;17.72;100.00;99597.97;4185774;28;20265;-51
2023/09/30 07:21:46;;;;;;;1.45;1.08;;;;;;;17.94;100.00;99595.00;4185501;28;20302;-52
2023/09/30 07:24:05;;;;;;;1.60;1.50;;;;;;;18.48;100.00;99585.22;4192271;28;20633;-48
2023/09/30 07:26:06;;;;;;;4.93;1.30;;;;;;;18.41;95.80;99595.72;4187675;28;20239;-49
2023/09/30 07:28:11;;;;;;;2.13;1.75;;;;;;;18.31;96.33;99592.97;4186702;28;20355;-51
2023/09/30 07:30:14;;;;;;;2.70;1.70;;;;;;;17.69;97.95;99592.97;4189791;28;20204;-50
2023/09/30 07:32:17;;;;;;;4.72;1.23;;;;;;;18.08;98.08;99596.16;4202752;28;20208;-49
2023/09/30 07:34:19;;;;;;;1.95;1.73;;;;;;;17.39;100.00;99608.59;4202313;28;20206;-50
2023/09/30 07:36:21;;;;;;;1.42;1.15;;;;;;;17.41;100.00;99603.59;4172817;28;20285;-48
2023/09/30 07:38:23;;;;;;;1.42;1.00;;;;;;;17.86;99.16;99609.38;4186935;28;20211;-48
2023/09/30 07:40:25;;;;;;;8.27;1.52;;;;;;;17.44;98.65;99612.22;4203608;28;20207;-47
2023/09/30 07:42:26;;;;;;;1.20;1.08;;;;;;;17.71;100.00;99606.56;4201240;28;20211;-51
2023/09/30 07:44:28;;;;;;;2.88;1.33;;;;;;;17.82;97.92;99616.56;4190431;28;20790;-48
2023/09/30 07:46:30;;;;;;;1.08;0.98;;;;;;;18.51;96.57;99627.09;4184728;28;20232;-50
2023/09/30 07:48:33;;;;;;;1.20;1.00;;;;;;;18.56;94.80;99627.09;4190606;28;20198;-51
2023/09/30 07:50:36;;;;;;;1.27;1.15;;;;;;;19.19;90.11;99614.66;4183557;28;20203;-48
2023/09/30 07:52:39;;;;;;;1.98;1.50;;;;;;;19.46;88.02;99599.34;4186109;28;20223;-48
2023/09/30 07:54:42;;;;;;;2.35;1.40;;;;;;;19.67;86.24;99589.03;4186168;28;20203;-48
2023/09/30 07:56:43;;;;;;;1.45;0.88;;;;;;;19.08;88.17;99596.34;4188935;28;20325;-48
2023/09/30 07:58:45;;;;;;;1.35;1.02;;;;;;;18.48;90.00;99601.84;4173390;28;20630;-51
2023/09/30 08:00:48;;;;;;;1.13;0.98;;;;;;;18.03;92.79;99599.75;4189507;28;20208;-49
2023/09/30 08:02:51;;;;;;;5.50;1.10;;;;;;;17.63;95.78;99598.75;4185717;28;20310;-49
2023/09/30 08:04:52;;;;;;;0.93;0.80;;;;;;;17.71;97.92;99601.03;4185171;28;20246;-48
2023/09/30 08:06:54;;;;;;;1.40;0.70;;;;;;;18.21;95.90;99623.38;4185815;28;20255;-48
2023/09/30 08:08:56;;;;;;;1.50;0.90;;;;;;;18.38;93.93;99624.03;4202823;28;20811;-48
2023/09/30 08:10:59;;;;;;;1.52;1.42;;;;;;;18.47;95.15;99619.59;4189267;28;20208;-48
2023/09/30 08:13:02;;;;;;;8.90;2.10;;;;;;;18.79;92.25;99636.84;4185204;28;20562;-48
2023/09/30 08:15:05;;;;;;;2.30;1.42;;;;;;;19.27;89.66;99637.16;4190420;28;20234;-50
2023/09/30 08:17:07;;;;;;;2.50;1.23;;;;;;;20.12;84.81;99631.38;4187212;28;20229;-48
2023/09/30 08:19:09;;;;;;;1.10;1.00;;;;;;;20.65;82.89;99635.28;4185060;28;20208;-50
2023/09/30 08:21:11;;;;;;;1.42;0.93;;;;;;;20.93;80.27;99642.91;4185225;28;20204;-50
2023/09/30 08:23:13;;;;;;;1.58;1.27;;;;;;;20.81;78.45;99640.47;4184193;28;20210;-48
2023/09/30 08:25:15;;;;;;;1.83;1.10;;;;;;;20.97;78.56;99632.88;4188667;28;20227;-48
2023/09/30 08:27:16;;;;;;;2.42;1.02;;;;;;;21.12;76.55;99641.91;4205135;28;20226;-49
2023/09/30 08:29:18;;;;;;;0.75;0.75;;;;;;;20.97;78.37;99638.44;4187131;28;20242;-48
2023/09/30 08:31:21;;;;;;;5.45;0.98;;;;;;;21.07;76.33;99628.06;4193970;28;20579;-47
2023/09/30 08:33:24;;;;;;;1.35;1.10;;;;;;;21.54;74.34;99624.53;4185461;28;20214;-49
2023/09/30 08:35:25;;;;;;;1.00;0.85;;;;;;;20.66;74.35;99632.22;4182753;28;20685;-50
2023/09/30 08:37:28;;;;;;;1.17;0.93;;;;;;;21.26;75.77;99625.38;4187754;28;20214;-49
2023/09/30 08:39:30;;;;;;;2.00;0.88;;;;;;;20.84;76.61;99622.38;4183637;28;20267;-52
2023/09/30 08:41:33;;;;;;;1.40;1.30;;;;;;;21.45;74.04;99623.53;4188279;28;20301;-48
2023/09/30 08:43:38;;;;;;;1.83;1.25;;;;;;;21.00;73.51;99626.72;4199940;28;20215;-49
2023/09/30 08:45:44;;;;;;;2.78;1.23;;;;;;;19.79;76.13;99626.47;4185105;28;20273;-49
2023/09/30 08:47:46;;;;;;;1.90;1.42;;;;;;;20.14;77.16;99636.69;4184679;28;20223;-50
2023/09/30 08:49:50;;;;;;;2.40;1.05;;;;;;;21.35;73.76;99623.63;4169480;28;20203;-52
2023/09/30 08:51:53;;;;;;;2.00;1.23;;;;;;;20.90;73.33;99635.16;4188699;28;20639;-48
2023/09/30 08:53:56;;;;;;;1.83;1.10;;;;;;;21.00;72.27;99627.56;4187376;28;20242;-47
2023/09/30 08:56:00;;;;;;;4.80;0.80;;;;;;;21.29;72.31;99619.22;4183526;28;20230;-51
2023/09/30 08:58:02;;;;;;;3.03;1.13;;;;;;;21.27;72.05;99621.47;4172332;28;20207;-48
2023/09/30 09:00:05;;;;;;;2.90;1.02;;;;;;;20.47;72.31;99633.16;4168857;28;20207;-49
2023/09/30 09:02:08;;;;;;;2.40;1.15;;;;;;;20.41;73.75;99628.75;4182564;28;20204;-48
2023/09/30 09:04:10;;;;;;;1.90;0.75;;;;;;;20.85;73.00;99624.03;4202674;28;20694;-48
2023/09/30 09:06:12;;;;;;;0.80;0.70;;;;;;;20.76;73.18;99634.94;4190120;28;20234;-49
2023/09/30 09:08:14;;;;;;;7.07;0.70;;;;;;;20.88;72.25;99631.81;4180424;28;20316;-46
2023/09/30 09:10:16;;;;;;;0.85;0.70;;;;;;;21.01;71.48;99631.16;4198621;28;20207;-48
2023/09/30 09:12:20;;;;;;;0.85;0.82;;;;;;;21.20;71.53;99620.97;4184037;28;20215;-48
2023/09/30 09:14:42;;;;;;;1.20;0.70;;;;;;;21.52;71.74;99629.59;4181709;28;22171;-47
2023/09/30 09:16:55;;;;;;;0.68;0.60;;;;;;;21.15;70.61;99632.16;4188094;28;20309;-51
2023/09/30 09:18:57;;;;;;;1.02;0.93;;;;;;;21.17;71.83;99627.16;4192414;28;20202;-48
2023/09/30 09:21:17;;;;;;;1.38;1.00;;;;;;;21.21;70.84;99622.63;4185977;28;20231;-48
2023/09/30 09:23:19;;;;;;;2.55;1.00;;;;;;;20.82;70.91;99624.59;4188828;28;20333;-49
2023/09/30 09:25:24;;;;;;;2.83;1.08;;;;;;;20.64;73.29;99619.72;4183908;28;20234;-49
2023/09/30 09:27:26;;;;;;;1.35;1.05;;;;;;;20.58;73.54;99618.09;4198519;28;20218;-47
2023/09/30 09:29:28;;;;;;;2.55;1.30;;;;;;;20.41;72.30;99618.47;4183615;28;20226;-50
2023/09/30 09:31:34;;;;;;;1.85;0.90;;;;;;;20.67;72.12;99619.13;4186804;28;20205;-50